createdAt,value
2017-05-28T00:00:35.253Z,9.80
2017-05-28T00:03:03.204Z,10.44
2017-05-28T00:05:31.181Z,9.74
2017-05-28T00:07:58.721Z,9.88
2017-05-28T00:10:26.659Z,9.22
2017-05-28T00:12:54.238Z,9.42
2017-05-28T00:15:21.776Z,9.46
2017-05-28T00:17:49.729Z,11.44
2017-05-28T00:20:17.712Z,10.32
2017-05-28T00:22:45.269Z,10.18
2017-05-28T00:25:12.821Z,10.98
2017-05-28T00:27:40.405Z,9.94
2017-05-28T00:30:07.951Z,10.88
2017-05-28T00:32:35.500Z,10.16
2017-05-28T00:35:03.073Z,10.22
2017-05-28T00:37:30.625Z,11.68
2017-05-28T00:39:58.172Z,11.60
2017-05-28T00:42:25.744Z,10.78
2017-05-28T00:44:53.293Z,12.78
2017-05-28T00:47:21.245Z,11.02
2017-05-28T00:49:48.817Z,12.20
2017-05-28T00:52:16.773Z,10.12
2017-05-28T00:54:44.342Z,11.48
2017-05-28T00:57:12.313Z,11.54
2017-05-28T00:59:39.856Z,12.12
2017-05-28T01:02:07.401Z,11.76
2017-05-28T01:04:34.992Z,10.66
2017-05-28T01:07:02.536Z,12.08
2017-05-28T01:09:30.101Z,12.26
2017-05-28T01:11:57.638Z,11.58
2017-05-28T01:14:25.221Z,11.08
2017-05-28T01:16:53.169Z,12.64
2017-05-28T01:19:21.142Z,13.22
2017-05-28T01:21:48.693Z,11.64
2017-05-28T01:24:16.254Z,12.58
2017-05-28T01:26:44.172Z,13.56
2017-05-28T01:29:12.107Z,12.58
2017-05-28T01:31:39.653Z,14.42
2017-05-28T01:34:07.225Z,12.76
2017-05-28T01:36:35.481Z,12.36
2017-05-28T01:39:03.048Z,12.80
2017-05-28T01:41:30.617Z,11.92
2017-05-28T01:43:58.165Z,13.70
2017-05-28T01:46:25.708Z,12.00
2017-05-28T01:48:53.274Z,12.82
2017-05-28T01:51:21.215Z,11.10
2017-05-28T01:53:49.157Z,12.88
2017-05-28T01:56:16.732Z,12.22
2017-05-28T01:58:44.286Z,11.46
2017-05-28T02:01:12.220Z,12.58
2017-05-28T02:03:40.207Z,12.10
2017-05-28T02:06:08.152Z,11.86
2017-05-28T02:08:36.097Z,11.98
2017-05-28T02:11:04.070Z,13.74
2017-05-28T02:13:31.635Z,11.90
2017-05-28T02:15:59.573Z,13.00
2017-05-28T02:18:27.533Z,11.92
2017-05-28T02:20:55.488Z,12.20
2017-05-28T02:23:23.426Z,12.30
2017-05-28T02:25:51.389Z,12.34
2017-05-28T02:28:19.334Z,11.24
2017-05-28T02:30:46.845Z,12.72
2017-05-28T02:33:14.849Z,11.24
2017-05-28T02:35:42.395Z,12.46
2017-05-28T02:38:09.941Z,11.66
2017-05-28T02:40:37.509Z,11.80
2017-05-28T02:43:05.525Z,11.40
2017-05-28T02:45:33.472Z,11.76
2017-05-28T02:48:01.437Z,11.72
2017-05-28T02:50:28.984Z,12.14
2017-05-28T02:52:56.537Z,11.88
2017-05-28T02:55:24.113Z,10.60
2017-05-28T02:57:51.653Z,12.06
2017-05-28T03:00:19.201Z,11.84
2017-05-28T03:02:47.168Z,12.32
2017-05-28T03:05:14.713Z,10.86
2017-05-28T03:07:42.695Z,11.30
2017-05-28T03:10:10.268Z,11.52
2017-05-28T03:12:37.821Z,12.04
2017-05-28T03:15:05.380Z,11.42
2017-05-28T03:17:33.348Z,12.50
2017-05-28T03:20:00.889Z,12.58
2017-05-28T03:22:28.825Z,13.56
2017-05-28T03:24:56.792Z,15.80
2017-05-28T03:27:24.336Z,14.40
2017-05-28T03:29:52.290Z,17.82
2017-05-28T03:32:20.276Z,18.24
2017-05-28T03:34:47.829Z,17.16
2017-05-28T03:37:15.378Z,22.76
2017-05-28T03:39:42.948Z,20.76
2017-05-28T03:42:10.496Z,20.78
2017-05-28T03:44:38.449Z,21.02
2017-05-28T03:47:06.417Z,18.20
2017-05-28T03:49:34.365Z,16.00
2017-05-28T03:52:02.315Z,15.50
2017-05-28T03:54:30.289Z,17.32
2017-05-28T03:56:58.229Z,14.46
2017-05-28T03:59:26.174Z,16.00
2017-05-28T04:01:54.146Z,16.36
2017-05-28T04:04:22.093Z,14.10
2017-05-28T04:06:49.636Z,13.98
2017-05-28T04:09:17.205Z,14.52
2017-05-28T04:11:45.145Z,14.54
2017-05-28T04:14:13.092Z,14.36
2017-05-28T04:16:40.652Z,14.70
2017-05-28T04:19:08.197Z,14.88
2017-05-28T04:21:36.136Z,14.12
2017-05-28T04:24:04.144Z,14.18
2017-05-28T04:26:32.090Z,13.42
2017-05-28T04:29:00.037Z,14.34
2017-05-28T04:31:27.620Z,14.54
2017-05-28T04:33:55.175Z,13.40
2017-05-28T04:36:23.122Z,14.74
2017-05-28T04:38:51.144Z,13.04
2017-05-28T04:41:18.677Z,14.48
2017-05-28T04:43:46.630Z,13.62
2017-05-28T04:46:14.599Z,13.38
2017-05-28T04:48:42.146Z,12.78
2017-05-28T04:51:10.080Z,13.22
2017-05-28T04:53:37.654Z,14.12
2017-05-28T04:56:05.592Z,14.30
2017-05-28T04:58:33.136Z,14.38
2017-05-28T05:01:01.481Z,13.20
2017-05-28T05:03:29.424Z,12.84
2017-05-28T05:05:56.977Z,12.92
2017-05-28T05:08:24.941Z,12.12
2017-05-28T05:10:52.890Z,13.20
2017-05-28T05:13:20.838Z,11.60
2017-05-28T05:15:48.801Z,12.72
2017-05-28T05:18:16.741Z,12.32
2017-05-28T05:20:44.284Z,12.40
2017-05-28T05:23:12.257Z,11.98
2017-05-28T05:25:40.157Z,11.84
2017-05-28T05:28:08.128Z,13.60
2017-05-28T05:30:36.436Z,12.20
2017-05-28T05:33:03.990Z,11.50
2017-05-28T05:35:31.536Z,11.32
2017-05-28T05:37:59.502Z,12.52
2017-05-28T05:40:27.440Z,11.54
2017-05-28T05:42:54.996Z,10.56
2017-05-28T05:45:22.964Z,12.12
2017-05-28T05:47:50.899Z,11.60
2017-05-28T05:50:18.846Z,11.80
2017-05-28T05:52:46.804Z,12.00
2017-05-28T05:55:14.744Z,11.28
2017-05-28T05:57:42.293Z,10.36
2017-05-28T06:00:09.860Z,10.26
2017-05-28T06:02:37.796Z,10.22
2017-05-28T06:05:05.740Z,10.92
2017-05-28T06:07:33.709Z,11.46
2017-05-28T06:10:01.261Z,11.52
2017-05-28T06:12:28.808Z,10.82
2017-05-28T06:14:56.777Z,10.28
2017-05-28T06:17:24.746Z,9.68
2017-05-28T06:19:52.684Z,10.80
2017-05-28T06:22:20.232Z,10.36
2017-05-28T06:24:48.187Z,10.48
2017-05-28T06:27:16.128Z,10.40
2017-05-28T06:29:43.682Z,11.30
2017-05-28T06:32:11.646Z,9.80
2017-05-28T06:34:39.585Z,10.38
2017-05-28T06:37:07.131Z,11.22
2017-05-28T06:39:35.105Z,10.96
2017-05-28T06:42:03.873Z,10.52
2017-05-28T06:44:31.425Z,11.28
2017-05-28T06:46:59.002Z,10.80
2017-05-28T06:49:26.545Z,10.26
2017-05-28T06:51:54.484Z,11.10
2017-05-28T06:54:22.056Z,10.58
2017-05-28T06:56:49.991Z,9.84
2017-05-28T06:59:17.569Z,9.90
2017-05-28T07:01:45.529Z,9.38
2017-05-28T07:04:13.469Z,11.28
2017-05-28T07:06:41.445Z,10.12
2017-05-28T07:09:09.384Z,9.74
2017-05-28T07:11:37.324Z,10.04
2017-05-28T07:14:05.296Z,10.68
2017-05-28T07:16:33.207Z,10.32
2017-05-28T07:19:00.796Z,10.42
2017-05-28T07:21:28.765Z,9.60
2017-05-28T07:23:56.310Z,9.52
2017-05-28T07:26:23.857Z,8.80
2017-05-28T07:28:51.420Z,9.24
2017-05-28T07:31:19.363Z,7.94
2017-05-28T07:33:47.302Z,9.14
2017-05-28T07:36:14.878Z,8.98
2017-05-28T07:38:42.816Z,9.62
2017-05-28T07:41:10.365Z,9.46
2017-05-28T07:43:38.337Z,9.10
2017-05-28T07:46:06.272Z,9.18
2017-05-28T07:48:33.811Z,8.82
2017-05-28T07:51:01.778Z,9.28
2017-05-28T07:53:29.722Z,9.68
2017-05-28T07:55:57.268Z,8.60
2017-05-28T07:58:25.228Z,9.32
2017-05-28T08:00:53.163Z,9.56
2017-05-28T08:03:21.104Z,9.30
2017-05-28T08:05:48.676Z,9.40
2017-05-28T08:08:16.611Z,8.62
2017-05-28T08:10:44.156Z,8.78
2017-05-28T08:13:11.726Z,9.28
2017-05-28T08:15:39.660Z,8.78
2017-05-28T08:18:07.596Z,8.20
2017-05-28T08:20:35.560Z,8.38
2017-05-28T08:23:03.106Z,8.60
2017-05-28T08:25:30.643Z,7.80
2017-05-28T08:27:58.612Z,8.30
2017-05-28T08:30:26.155Z,8.12
2017-05-28T08:32:54.096Z,9.84
2017-05-28T08:35:22.056Z,8.22
2017-05-28T08:37:49.591Z,9.06
2017-05-28T08:40:17.529Z,8.78
2017-05-28T08:42:45.488Z,9.56
2017-05-28T08:45:13.025Z,8.20
2017-05-28T08:47:40.559Z,8.58
2017-05-28T08:50:08.132Z,8.82
2017-05-28T08:52:36.059Z,8.42
2017-05-28T08:55:04.001Z,8.68
2017-05-28T08:57:31.569Z,8.50
2017-05-28T08:59:59.503Z,9.08
2017-05-28T09:02:27.049Z,7.68
2017-05-28T09:04:55.024Z,7.96
2017-05-28T09:07:22.570Z,8.70
2017-05-28T09:09:50.508Z,8.60
2017-05-28T09:12:18.080Z,8.24
2017-05-28T09:14:46.024Z,8.16
2017-05-28T09:17:13.963Z,8.14
2017-05-28T09:19:41.537Z,8.18
2017-05-28T09:22:09.473Z,8.42
2017-05-28T09:24:37.007Z,8.62
2017-05-28T09:27:04.960Z,7.90
2017-05-28T09:29:32.896Z,7.74
2017-05-28T09:32:00.444Z,7.08
2017-05-28T09:34:28.004Z,7.86
2017-05-28T09:36:55.545Z,8.02
2017-05-28T09:39:23.480Z,7.14
2017-05-28T09:41:51.447Z,7.74
2017-05-28T09:44:19.384Z,7.66
2017-05-28T09:46:46.924Z,7.52
2017-05-28T09:49:14.512Z,7.12
2017-05-28T09:51:42.048Z,7.56
2017-05-28T09:54:09.583Z,7.28
2017-05-28T09:56:37.143Z,6.84
2017-05-28T09:59:04.683Z,7.38
2017-05-28T10:01:32.621Z,7.28
2017-05-28T10:04:00.188Z,7.46
2017-05-28T10:06:28.119Z,7.66
2017-05-28T10:08:56.060Z,7.36
2017-05-28T10:11:24.028Z,6.60
2017-05-28T10:13:51.961Z,6.50
2017-05-28T10:16:19.914Z,6.52
2017-05-28T10:18:47.480Z,7.70
2017-05-28T10:21:15.430Z,8.02
2017-05-28T10:23:42.970Z,6.98
2017-05-28T10:26:10.931Z,7.50
2017-05-28T10:28:38.868Z,6.82
2017-05-28T10:31:06.810Z,7.22
2017-05-28T10:33:34.374Z,7.50
2017-05-28T10:36:02.312Z,6.84
2017-05-28T10:38:29.860Z,7.56
2017-05-28T10:40:57.816Z,6.66
2017-05-28T10:43:25.352Z,6.98
2017-05-28T10:45:52.887Z,6.82
2017-05-28T10:48:20.716Z,6.90
2017-05-28T10:50:48.665Z,7.20
2017-05-28T10:53:16.600Z,7.22
2017-05-28T10:55:44.556Z,7.24
2017-05-28T10:58:12.496Z,6.86
2017-05-28T11:00:40.437Z,7.48
2017-05-28T11:03:07.996Z,7.78
2017-05-28T11:05:35.540Z,7.62
2017-05-28T11:08:03.488Z,7.08
2017-05-28T11:10:31.047Z,7.18
2017-05-28T11:12:58.593Z,7.14
2017-05-28T11:15:26.135Z,7.72
2017-05-28T11:17:54.093Z,7.36
2017-05-28T11:20:22.508Z,7.20
2017-05-28T11:22:54.487Z,6.80
2017-05-28T11:25:22.024Z,8.00
2017-05-28T11:27:49.960Z,7.48
2017-05-28T11:30:17.524Z,7.56
2017-05-28T11:32:45.077Z,7.44
2017-05-28T11:35:13.008Z,7.00
2017-05-28T11:37:40.972Z,6.54
2017-05-28T11:40:08.512Z,6.52
2017-05-28T11:42:36.453Z,6.32
2017-05-28T11:45:04.416Z,6.60
2017-05-28T11:47:32.362Z,6.38
2017-05-28T11:50:00.287Z,6.60
2017-05-28T11:52:27.856Z,6.78
2017-05-28T11:54:55.865Z,6.48
2017-05-28T11:57:23.399Z,6.84
2017-05-28T11:59:51.372Z,7.42
2017-05-28T12:02:18.912Z,7.22
2017-05-28T12:04:46.852Z,7.14
2017-05-28T12:07:14.420Z,8.24
2017-05-28T12:09:41.951Z,8.04
2017-05-28T12:12:09.493Z,7.86
2017-05-28T12:14:37.455Z,8.14
2017-05-28T12:17:05.393Z,8.06
2017-05-28T12:19:33.335Z,9.36
2017-05-28T12:22:00.905Z,8.68
2017-05-28T12:24:28.448Z,7.62
2017-05-28T12:26:55.999Z,8.46
2017-05-28T12:29:23.953Z,7.62
2017-05-28T12:31:51.501Z,7.50
2017-05-28T12:34:19.057Z,8.32
2017-05-28T12:36:47.030Z,8.44
2017-05-28T12:39:14.577Z,7.98
2017-05-28T12:41:42.602Z,7.20
2017-05-28T12:44:10.160Z,8.10
2017-05-28T12:46:37.700Z,8.00
2017-05-28T12:49:05.636Z,8.46
2017-05-28T12:51:33.596Z,7.18
2017-05-28T12:54:01.538Z,7.80
2017-05-28T12:56:29.081Z,7.66
2017-05-28T12:58:56.653Z,7.60
2017-05-28T13:01:24.192Z,7.56
2017-05-28T13:03:52.134Z,7.98
2017-05-28T13:06:20.100Z,7.26
2017-05-28T13:08:48.032Z,7.02
2017-05-28T13:11:15.568Z,7.22
2017-05-28T13:13:43.136Z,7.92
2017-05-28T13:16:10.676Z,7.80
2017-05-28T13:18:38.621Z,7.80
2017-05-28T13:21:06.580Z,6.80
2017-05-28T13:23:34.519Z,7.36
2017-05-28T13:26:02.026Z,7.50
2017-05-28T13:28:30.020Z,7.12
2017-05-28T13:30:57.560Z,7.70
2017-05-28T13:33:25.504Z,7.70
2017-05-28T13:35:53.073Z,7.08
2017-05-28T13:38:21.016Z,7.70
2017-05-28T13:40:48.961Z,7.80
2017-05-28T13:43:16.924Z,6.94
2017-05-28T13:45:44.864Z,7.04
2017-05-28T13:48:12.803Z,7.96
2017-05-28T13:50:40.760Z,6.82
2017-05-28T13:53:08.301Z,7.32
2017-05-28T13:55:36.237Z,7.12
2017-05-28T13:58:03.798Z,7.04
2017-05-28T14:00:31.736Z,7.88
2017-05-28T14:02:59.278Z,7.86
2017-05-28T14:05:27.232Z,7.48
2017-05-28T14:07:55.174Z,7.40
2017-05-28T14:10:23.114Z,6.98
2017-05-28T14:12:50.698Z,7.50
2017-05-28T14:15:18.623Z,6.94
2017-05-28T14:17:46.176Z,6.34
2017-05-28T14:20:14.149Z,7.06
2017-05-28T14:22:41.688Z,7.78
2017-05-28T14:25:09.629Z,7.80
2017-05-28T14:27:37.592Z,7.52
2017-05-28T14:30:05.536Z,7.92
2017-05-28T14:32:33.469Z,7.62
2017-05-28T14:35:01.041Z,7.86
2017-05-28T14:37:28.575Z,7.70
2017-05-28T14:39:56.516Z,7.20
2017-05-28T14:42:24.085Z,7.04
2017-05-28T14:44:52.037Z,7.62
2017-05-28T14:47:19.574Z,6.76
2017-05-28T14:49:47.544Z,7.98
2017-05-28T14:52:15.085Z,7.70
2017-05-28T14:54:43.020Z,7.64
2017-05-28T14:57:10.580Z,7.00
2017-05-28T14:59:38.520Z,7.14
2017-05-28T15:02:06.460Z,7.48
2017-05-28T15:04:34.223Z,6.70
2017-05-28T15:07:02.160Z,7.56
2017-05-28T15:09:30.097Z,8.22
2017-05-28T15:11:58.066Z,7.36
2017-05-28T15:14:25.617Z,8.08
2017-05-28T15:16:53.157Z,7.24
2017-05-28T15:19:20.715Z,7.82
2017-05-28T15:21:48.265Z,7.10
2017-05-28T15:24:15.852Z,7.58
2017-05-28T15:26:43.421Z,7.30
2017-05-28T15:29:11.353Z,7.30
2017-05-28T15:31:38.897Z,6.90
2017-05-28T15:34:06.863Z,7.32
2017-05-28T15:36:34.800Z,7.42
2017-05-28T15:39:02.342Z,7.54
2017-05-28T15:41:30.308Z,7.50
2017-05-28T15:43:57.856Z,7.16
2017-05-28T15:46:25.796Z,6.40
2017-05-28T15:48:53.770Z,7.42
2017-05-28T15:51:21.712Z,7.22
2017-05-28T15:53:49.665Z,6.58
2017-05-28T15:56:17.630Z,6.14
2017-05-28T15:58:45.180Z,7.06
2017-05-28T16:01:12.717Z,6.40
2017-05-28T16:03:40.690Z,6.18
2017-05-28T16:06:08.625Z,6.54
2017-05-28T16:08:36.573Z,5.98
2017-05-28T16:11:04.144Z,6.78
2017-05-28T16:13:32.081Z,7.02
2017-05-28T16:15:59.656Z,6.34
2017-05-28T16:18:27.230Z,6.98
2017-05-28T16:20:55.168Z,6.88
2017-05-28T16:23:23.119Z,6.72
2017-05-28T16:25:50.741Z,7.18
2017-05-28T16:28:18.676Z,6.42
2017-05-28T16:30:46.613Z,6.96
2017-05-28T16:33:14.589Z,6.50
2017-05-28T16:35:42.137Z,6.50
2017-05-28T16:38:10.091Z,7.30
2017-05-28T16:40:37.658Z,6.66
2017-05-28T16:43:05.600Z,7.70
2017-05-28T16:45:33.536Z,6.84
2017-05-28T16:48:01.106Z,7.10
2017-05-28T16:50:28.653Z,7.36
2017-05-28T16:52:56.593Z,7.28
2017-05-28T16:55:24.577Z,7.08
2017-05-28T16:57:52.127Z,7.64
2017-05-28T17:00:20.066Z,7.38
2017-05-28T17:02:47.670Z,7.38
2017-05-28T17:05:15.640Z,7.66
2017-05-28T17:07:43.236Z,8.18
2017-05-28T17:10:10.835Z,7.46
2017-05-28T17:12:38.408Z,8.44
2017-05-28T17:15:06.385Z,7.70
2017-05-28T17:17:34.354Z,7.94
2017-05-28T17:20:02.297Z,8.00
2017-05-28T17:22:29.835Z,7.68
2017-05-28T17:24:57.420Z,8.14
2017-05-28T17:27:25.361Z,7.56
2017-05-28T17:29:53.303Z,7.70
2017-05-28T17:32:20.965Z,7.90
2017-05-28T17:34:48.704Z,6.52
2017-05-28T17:37:16.918Z,7.92
2017-05-28T17:39:45.066Z,7.58
2017-05-28T17:42:13.031Z,7.28
2017-05-28T17:44:41.437Z,7.88
2017-05-28T17:47:09.598Z,7.82
2017-05-28T17:49:37.527Z,7.80
2017-05-28T17:52:05.806Z,8.38
2017-05-28T17:54:34.113Z,8.64
2017-05-28T17:57:02.510Z,8.46
2017-05-28T17:59:30.940Z,8.40
2017-05-28T18:01:59.265Z,10.26
2017-05-28T18:04:27.657Z,7.88
2017-05-28T18:06:56.240Z,9.04
2017-05-28T18:09:24.770Z,9.28
2017-05-28T18:11:53.621Z,7.70
2017-05-28T18:14:22.538Z,7.48
2017-05-28T18:16:51.156Z,7.30
2017-05-28T18:19:19.725Z,8.50
2017-05-28T18:21:48.777Z,7.58
2017-05-28T18:24:17.808Z,7.58
2017-05-28T18:26:46.364Z,7.50
2017-05-28T18:29:15.326Z,7.08
2017-05-28T18:31:43.974Z,7.78
2017-05-28T18:34:12.900Z,9.02
2017-05-28T18:36:41.447Z,8.06
2017-05-28T18:39:10.547Z,7.66
2017-05-28T18:41:39.452Z,7.68
2017-05-28T18:44:08.025Z,8.10
2017-05-28T18:46:36.701Z,7.88
2017-05-28T18:49:05.652Z,7.90
2017-05-28T18:51:34.780Z,8.64
2017-05-28T18:54:03.509Z,10.92
2017-05-28T18:56:32.485Z,11.82
2017-05-28T18:59:01.444Z,9.84
2017-05-28T19:01:30.084Z,8.54
2017-05-28T19:03:59.074Z,8.24
2017-05-28T19:06:27.642Z,8.40
2017-05-28T19:08:56.656Z,8.60
2017-05-28T19:11:25.213Z,8.54
2017-05-28T19:13:54.156Z,7.82
2017-05-28T19:16:22.829Z,8.12
2017-05-28T19:18:51.423Z,8.10
2017-05-28T19:21:20.026Z,9.32
2017-05-28T19:23:48.970Z,8.80
2017-05-28T19:26:18.195Z,10.74
2017-05-28T19:28:47.171Z,10.48
2017-05-28T19:31:15.817Z,9.78
2017-05-28T19:33:44.820Z,10.30
2017-05-28T19:36:13.397Z,10.22
2017-05-28T19:38:42.500Z,10.00
2017-05-28T19:41:11.450Z,10.58
2017-05-28T19:43:40.404Z,10.78
2017-05-28T19:46:09.120Z,10.46
2017-05-28T19:48:37.796Z,10.40
2017-05-28T19:51:06.376Z,11.78
2017-05-28T19:53:35.483Z,11.12
2017-05-28T19:56:04.497Z,10.40
2017-05-28T19:58:33.515Z,10.44
2017-05-28T20:01:02.621Z,10.98
2017-05-28T20:03:31.609Z,10.08
2017-05-28T20:06:03.572Z,11.82
2017-05-28T20:08:33.226Z,12.06
2017-05-28T20:11:02.215Z,12.38
2017-05-28T20:13:31.496Z,11.98
2017-05-28T20:16:00.470Z,13.64
2017-05-28T20:18:29.464Z,13.62
2017-05-28T20:20:58.920Z,13.12
2017-05-28T20:23:28.066Z,11.58
2017-05-28T20:25:56.676Z,11.92
2017-05-28T20:28:25.501Z,11.46
2017-05-28T20:30:54.482Z,12.54
2017-05-28T20:33:23.033Z,12.00
2017-05-28T20:35:52.245Z,11.70
2017-05-28T20:38:21.241Z,11.52
2017-05-28T20:40:49.873Z,12.24
2017-05-28T20:43:18.937Z,11.94
2017-05-28T20:45:47.887Z,13.46
2017-05-28T20:48:16.732Z,12.52
2017-05-28T20:50:45.630Z,12.94
2017-05-28T20:53:14.632Z,12.64
2017-05-28T20:55:43.260Z,11.98
2017-05-28T20:58:12.074Z,12.84
2017-05-28T21:00:41.295Z,12.38
2017-05-28T21:03:09.901Z,12.60
2017-05-28T21:05:38.877Z,12.64
2017-05-28T21:08:07.519Z,12.32
2017-05-28T21:10:36.077Z,12.58
2017-05-28T21:13:04.573Z,12.98
2017-05-28T21:15:33.293Z,12.36
2017-05-28T21:18:01.120Z,11.92
2017-05-28T21:20:29.184Z,11.94
2017-05-28T21:22:56.853Z,12.98
2017-05-28T21:25:24.811Z,12.14
2017-05-28T21:27:52.386Z,12.78
2017-05-28T21:30:19.967Z,12.88
2017-05-28T21:32:47.909Z,12.42
2017-05-28T21:35:15.465Z,12.80
2017-05-28T21:37:43.433Z,14.22
2017-05-28T21:40:11.389Z,12.32
2017-05-28T21:42:39.334Z,12.62
2017-05-28T21:45:07.309Z,12.00
2017-05-28T21:47:35.260Z,11.30
2017-05-28T21:50:02.853Z,11.68
2017-05-28T21:52:30.446Z,11.58
2017-05-28T21:54:58.002Z,11.76
2017-05-28T21:57:25.552Z,12.28
2017-05-28T21:59:53.128Z,12.22
2017-05-28T22:02:20.691Z,12.58
2017-05-28T22:04:48.640Z,13.08
2017-05-28T22:07:16.624Z,13.16
2017-05-28T22:09:44.178Z,12.70
2017-05-28T22:12:11.741Z,14.52
2017-05-28T22:14:39.317Z,12.54
2017-05-28T22:17:06.865Z,14.64
2017-05-28T22:19:34.420Z,13.94
2017-05-28T22:22:02.385Z,15.50
2017-05-28T22:24:30.338Z,14.80
2017-05-28T22:26:57.888Z,12.26
2017-05-28T22:29:25.857Z,12.92
2017-05-28T22:31:53.804Z,14.12
2017-05-28T22:34:21.785Z,13.02
2017-05-28T22:36:49.351Z,13.80
2017-05-28T22:39:16.897Z,14.26
2017-05-28T22:41:45.548Z,14.76
2017-05-28T22:44:14.519Z,14.88
2017-05-28T22:46:42.808Z,14.28
2017-05-28T22:49:10.825Z,14.42
2017-05-28T22:51:38.776Z,14.28
2017-05-28T22:54:06.329Z,14.88
2017-05-28T22:56:34.310Z,14.90
2017-05-28T22:59:02.249Z,13.70
2017-05-28T23:01:30.192Z,13.82
2017-05-28T23:03:58.164Z,13.90
2017-05-28T23:06:25.712Z,13.86
2017-05-28T23:08:53.660Z,13.02
2017-05-28T23:11:21.640Z,12.40
2017-05-28T23:13:49.580Z,13.32
2017-05-28T23:16:17.134Z,13.60
2017-05-28T23:18:44.708Z,12.60
2017-05-28T23:21:12.260Z,12.46
2017-05-28T23:23:39.813Z,13.58
2017-05-28T23:26:07.388Z,13.32
2017-05-28T23:28:34.941Z,12.98
2017-05-28T23:31:02.493Z,13.72
2017-05-28T23:33:30.461Z,14.24
2017-05-28T23:35:58.410Z,14.00
2017-05-28T23:38:26.357Z,14.20
2017-05-28T23:40:54.326Z,12.58
2017-05-28T23:43:22.274Z,13.96
2017-05-28T23:45:50.221Z,14.68
2017-05-28T23:48:18.210Z,13.98
2017-05-28T23:50:46.161Z,12.96
2017-05-28T23:53:13.714Z,14.38
2017-05-28T23:55:41.693Z,14.88
2017-05-28T23:58:09.254Z,15.06
